Lineville, Iowa
Current Conditions -  °F | °C
As of 10:15 AM on Wednesday 26 Nov 2014 (Local Time) from KLWD Reporting Station
Overcast Overcast  
Wind Chill: 26°   Ceiling: 900
Heat Index: 35°   Visibility: 10mi
Dew Point: 32°   Wind: 13mph
Humidity: 89%   Direction: 300°WNW
Pressure: 29.87"   Gusts: NA
Location:  40.58°N, 93.52°W
Report Text: KLWD 261615Z AUTO 30011KT 10SM OVC009 02/00 A2987 RMK AO2 T00170000
Loading
Personal Weather Stations






























Interactive Weather Map New forecast layout! Learn more

10-Day Weather Forecast

Advertisements
Track Severe Weather on mobile